sensor_id;sensor_type;location;lat;lon;timestamp;pressure;altitude;pressure_sealevel;temperature;humidity
62712;BME280;48772;55.586;37.730;2022-07-06T00:01:07;99206.09;;;20.00;77.25
62712;BME280;48772;55.586;37.730;2022-07-06T00:03:33;99210.06;;;20.04;77.87
62712;BME280;48772;55.586;37.730;2022-07-06T00:05:59;99191.44;;;19.95;77.56
62712;BME280;48772;55.586;37.730;2022-07-06T00:08:25;99209.88;;;20.06;77.58
62712;BME280;48772;55.586;37.730;2022-07-06T00:10:50;99208.56;;;20.02;77.34
62712;BME280;48772;55.586;37.730;2022-07-06T00:13:16;99201.06;;;19.97;77.45
62712;BME280;48772;55.586;37.730;2022-07-06T00:15:42;99198.97;;;19.99;77.37
62712;BME280;48772;55.586;37.730;2022-07-06T00:18:08;99200.19;;;19.97;77.52
62712;BME280;48772;55.586;37.730;2022-07-06T00:20:34;99184.72;;;19.91;77.82
62712;BME280;48772;55.586;37.730;2022-07-06T00:23:00;99178.50;;;19.90;77.87
62712;BME280;48772;55.586;37.730;2022-07-06T00:25:25;99177.66;;;19.90;77.60
62712;BME280;48772;55.586;37.730;2022-07-06T00:27:51;99169.41;;;19.77;77.76
62712;BME280;48772;55.586;37.730;2022-07-06T00:30:17;99171.28;;;19.76;78.10
62712;BME280;48772;55.586;37.730;2022-07-06T00:32:43;99172.56;;;19.80;78.25
62712;BME280;48772;55.586;37.730;2022-07-06T00:35:09;99193.16;;;19.81;78.91
62712;BME280;48772;55.586;37.730;2022-07-06T00:37:35;99165.31;;;19.66;78.70
62712;BME280;48772;55.586;37.730;2022-07-06T00:40:01;99181.97;;;19.84;78.65
62712;BME280;48772;55.586;37.730;2022-07-06T00:42:27;99181.00;;;19.92;78.00
62712;BME280;48772;55.586;37.730;2022-07-06T00:44:52;99183.53;;;19.93;77.63
62712;BME280;48772;55.586;37.730;2022-07-06T00:47:18;99192.47;;;19.94;77.05
62712;BME280;48772;55.586;37.730;2022-07-06T00:49:44;99182.25;;;19.89;77.17
62712;BME280;48772;55.586;37.730;2022-07-06T00:52:29;99196.34;;;19.85;77.60
62712;BME280;48772;55.586;37.730;2022-07-06T00:54:54;99192.53;;;19.79;77.66
62712;BME280;48772;55.586;37.730;2022-07-06T00:57:21;99199.22;;;19.83;77.89
62712;BME280;48772;55.586;37.730;2022-07-06T00:59:46;99197.28;;;19.77;78.11
62712;BME280;48772;55.586;37.730;2022-07-06T01:02:12;99200.91;;;19.84;77.55
62712;BME280;48772;55.586;37.730;2022-07-06T01:04:38;99184.13;;;19.74;77.34
62712;BME280;48772;55.586;37.730;2022-07-06T01:07:04;99203.88;;;19.89;77.27
62712;BME280;48772;55.586;37.730;2022-07-06T01:09:30;99190.53;;;19.88;77.96
62712;BME280;48772;55.586;37.730;2022-07-06T01:11:56;99196.41;;;19.91;78.16
62712;BME280;48772;55.586;37.730;2022-07-06T01:14:22;99196.88;;;19.95;77.97
62712;BME280;48772;55.586;37.730;2022-07-06T01:16:48;99200.00;;;19.98;77.59
62712;BME280;48772;55.586;37.730;2022-07-06T01:19:14;99201.88;;;19.98;78.06
62712;BME280;48772;55.586;37.730;2022-07-06T01:21:40;99181.91;;;19.78;77.93
62712;BME280;48772;55.586;37.730;2022-07-06T01:24:06;99192.78;;;19.84;78.07
62712;BME280;48772;55.586;37.730;2022-07-06T01:26:32;99196.78;;;19.88;77.92
62712;BME280;48772;55.586;37.730;2022-07-06T01:28:58;99198.91;;;19.93;77.73
62712;BME280;48772;55.586;37.730;2022-07-06T01:31:25;99184.72;;;19.91;77.29
62712;BME280;48772;55.586;37.730;2022-07-06T01:33:53;99193.19;;;20.02;77.34
62712;BME280;48772;55.586;37.730;2022-07-06T01:36:19;99179.00;;;20.00;77.44
62712;BME280;48772;55.586;37.730;2022-07-06T01:41:15;99196.06;;;20.15;77.51
62712;BME280;48772;55.586;37.730;2022-07-06T01:43:43;99194.63;;;20.19;77.75
62712;BME280;48772;55.586;37.730;2022-07-06T01:46:10;99191.91;;;20.19;76.88
62712;BME280;48772;55.586;37.730;2022-07-06T01:48:36;99172.63;;;20.08;77.33
62712;BME280;48772;55.586;37.730;2022-07-06T01:51:03;99203.00;;;20.24;77.31
62712;BME280;48772;55.586;37.730;2022-07-06T01:53:29;99205.94;;;20.29;77.31
62712;BME280;48772;55.586;37.730;2022-07-06T01:55:55;99191.06;;;20.19;76.73
62712;BME280;48772;55.586;37.730;2022-07-06T01:58:21;99203.66;;;20.26;76.47
62712;BME280;48772;55.586;37.730;2022-07-06T02:00:47;99213.38;;;20.21;76.80
62712;BME280;48772;55.586;37.730;2022-07-06T02:03:13;99208.78;;;20.21;76.75
62712;BME280;48772;55.586;37.730;2022-07-06T02:05:38;99201.47;;;20.15;76.76
62712;BME280;48772;55.586;37.730;2022-07-06T02:08:04;99213.38;;;20.21;76.48
62712;BME280;48772;55.586;37.730;2022-07-06T02:10:31;99207.56;;;20.24;76.23
62712;BME280;48772;55.586;37.730;2022-07-06T02:12:58;99199.97;;;20.13;76.03
62712;BME280;48772;55.586;37.730;2022-07-06T02:15:23;99221.88;;;20.18;76.26
62712;BME280;48772;55.586;37.730;2022-07-06T02:17:49;99209.31;;;20.10;76.53
62712;BME280;48772;55.586;37.730;2022-07-06T02:20:15;99206.88;;;20.15;76.21
62712;BME280;48772;55.586;37.730;2022-07-06T02:22:41;99220.53;;;20.28;75.71
62712;BME280;48772;55.586;37.730;2022-07-06T02:25:07;99221.19;;;20.30;75.94
62712;BME280;48772;55.586;37.730;2022-07-06T02:27:34;99225.16;;;20.34;75.47
62712;BME280;48772;55.586;37.730;2022-07-06T02:30:04;99213.28;;;20.35;75.39
62712;BME280;48772;55.586;37.730;2022-07-06T02:32:32;99211.09;;;20.45;74.91
62712;BME280;48772;55.586;37.730;2022-07-06T02:34:58;99221.69;;;20.68;74.25
62712;BME280;48772;55.586;37.730;2022-07-06T02:37:25;99215.31;;;20.82;73.68
62712;BME280;48772;55.586;37.730;2022-07-06T02:39:51;99212.84;;;20.87;73.06
62712;BME280;48772;55.586;37.730;2022-07-06T02:42:17;99218.50;;;20.92;72.95
62712;BME280;48772;55.586;37.730;2022-07-06T02:44:43;99209.53;;;20.91;73.02
62712;BME280;48772;55.586;37.730;2022-07-06T02:47:09;99213.69;;;20.87;73.19
62712;BME280;48772;55.586;37.730;2022-07-06T02:49:34;99220.94;;;20.80;73.65
62712;BME280;48772;55.586;37.730;2022-07-06T02:52:00;99187.84;;;20.57;74.47
62712;BME280;48772;55.586;37.730;2022-07-06T02:54:27;99228.03;;;20.81;74.40
62712;BME280;48772;55.586;37.730;2022-07-06T02:56:53;99225.53;;;20.80;74.12
62712;BME280;48772;55.586;37.730;2022-07-06T02:59:20;99213.44;;;20.82;73.91
62712;BME280;48772;55.586;37.730;2022-07-06T03:01:46;99216.72;;;20.99;73.69
62712;BME280;48772;55.586;37.730;2022-07-06T03:04:12;99208.19;;;21.02;73.50
62712;BME280;48772;55.586;37.730;2022-07-06T03:06:38;99212.38;;;21.04;73.07
62712;BME280;48772;55.586;37.730;2022-07-06T03:09:05;99220.13;;;21.14;72.67
62712;BME280;48772;55.586;37.730;2022-07-06T03:11:31;99208.69;;;21.18;72.61
62712;BME280;48772;55.586;37.730;2022-07-06T03:13:56;99219.19;;;21.34;71.90
62712;BME280;48772;55.586;37.730;2022-07-06T03:16:22;99193.72;;;21.29;71.97
62712;BME280;48772;55.586;37.730;2022-07-06T03:18:49;99199.59;;;21.39;71.94
62712;BME280;48772;55.586;37.730;2022-07-06T03:21:15;99206.31;;;21.49;72.88
62712;BME280;48772;55.586;37.730;2022-07-06T03:23:40;99209.47;;;21.53;73.16
62712;BME280;48772;55.586;37.730;2022-07-06T03:26:06;99208.03;;;21.57;73.23
62712;BME280;48772;55.586;37.730;2022-07-06T03:28:33;99204.25;;;21.58;73.64
62712;BME280;48772;55.586;37.730;2022-07-06T03:30:59;99205.53;;;21.68;73.51
62712;BME280;48772;55.586;37.730;2022-07-06T03:33:25;99209.13;;;21.75;73.23
62712;BME280;48772;55.586;37.730;2022-07-06T03:35:52;99193.06;;;21.74;72.61
62712;BME280;48772;55.586;37.730;2022-07-06T03:38:18;99204.34;;;21.77;72.35
62712;BME280;48772;55.586;37.730;2022-07-06T03:40:44;99216.94;;;21.91;72.43
62712;BME280;48772;55.586;37.730;2022-07-06T03:43:11;99220.25;;;21.93;72.52
62712;BME280;48772;55.586;37.730;2022-07-06T03:45:37;99200.63;;;21.91;71.52
62712;BME280;48772;55.586;37.730;2022-07-06T03:48:05;99206.31;;;22.09;71.03
62712;BME280;48772;55.586;37.730;2022-07-06T03:50:33;99217.16;;;22.22;71.24
62712;BME280;48772;55.586;37.730;2022-07-06T03:53:00;99224.91;;;22.32;71.02
62712;BME280;48772;55.586;37.730;2022-07-06T03:55:27;99199.22;;;22.34;70.23
62712;BME280;48772;55.586;37.730;2022-07-06T03:57:57;99205.69;;;22.46;70.70
62712;BME280;48772;55.586;37.730;2022-07-06T04:00:23;99207.16;;;22.42;70.49
62712;BME280;48772;55.586;37.730;2022-07-06T04:02:57;99219.09;;;22.61;69.60
62712;BME280;48772;55.586;37.730;2022-07-06T04:05:27;99181.91;;;22.55;69.10
62712;BME280;48772;55.586;37.730;2022-07-06T04:07:54;99221.34;;;22.90;68.01
62712;BME280;48772;55.586;37.730;2022-07-06T04:10:24;99211.75;;;23.01;67.83
62712;BME280;48772;55.586;37.730;2022-07-06T04:12:50;99194.16;;;23.03;67.49
62712;BME280;48772;55.586;37.730;2022-07-06T04:15:17;99216.50;;;23.18;67.74
62712;BME280;48772;55.586;37.730;2022-07-06T04:17:43;99206.47;;;23.19;68.10
62712;BME280;48772;55.586;37.730;2022-07-06T04:20:21;99194.72;;;23.18;68.12
62712;BME280;48772;55.586;37.730;2022-07-06T04:22:48;99206.03;;;23.22;68.25
62712;BME280;48772;55.586;37.730;2022-07-06T04:25:15;99199.09;;;23.32;67.53
62712;BME280;48772;55.586;37.730;2022-07-06T04:27:41;99201.38;;;23.42;67.09
62712;BME280;48772;55.586;37.730;2022-07-06T04:30:08;99195.13;;;23.35;66.95
62712;BME280;48772;55.586;37.730;2022-07-06T04:32:35;99200.47;;;23.54;66.60
62712;BME280;48772;55.586;37.730;2022-07-06T04:35:03;99209.19;;;23.69;65.80
62712;BME280;48772;55.586;37.730;2022-07-06T04:37:29;99193.25;;;23.73;65.46
62712;BME280;48772;55.586;37.730;2022-07-06T04:39:55;99194.25;;;23.78;65.22
62712;BME280;48772;55.586;37.730;2022-07-06T04:42:22;99187.53;;;23.87;65.32
62712;BME280;48772;55.586;37.730;2022-07-06T04:44:48;99196.03;;;24.04;65.47
62712;BME280;48772;55.586;37.730;2022-07-06T04:47:14;99197.66;;;24.11;66.05
62712;BME280;48772;55.586;37.730;2022-07-06T04:49:41;99198.44;;;24.18;64.91
62712;BME280;48772;55.586;37.730;2022-07-06T04:52:07;99186.94;;;24.16;64.46
62712;BME280;48772;55.586;37.730;2022-07-06T04:54:34;99195.22;;;24.28;64.69
62712;BME280;48772;55.586;37.730;2022-07-06T04:57:00;99191.41;;;24.35;65.17
62712;BME280;48772;55.586;37.730;2022-07-06T04:59:27;99207.81;;;24.53;64.82
62712;BME280;48772;55.586;37.730;2022-07-06T05:01:53;99182.28;;;24.48;64.23
62712;BME280;48772;55.586;37.730;2022-07-06T05:04:19;99189.31;;;24.62;63.75
62712;BME280;48772;55.586;37.730;2022-07-06T05:06:46;99185.22;;;24.71;64.35
62712;BME280;48772;55.586;37.730;2022-07-06T05:09:15;99192.31;;;24.78;64.08
62712;BME280;48772;55.586;37.730;2022-07-06T05:11:41;99184.06;;;24.85;62.86
62712;BME280;48772;55.586;37.730;2022-07-06T05:14:08;99190.41;;;24.97;62.47
62712;BME280;48772;55.586;37.730;2022-07-06T05:16:34;99191.84;;;24.99;62.44
62712;BME280;48772;55.586;37.730;2022-07-06T05:19:00;99173.59;;;25.00;62.36
62712;BME280;48772;55.586;37.730;2022-07-06T05:21:27;99161.41;;;25.02;62.35
62712;BME280;48772;55.586;37.730;2022-07-06T05:23:53;99179.81;;;25.25;61.74
62712;BME280;48772;55.586;37.730;2022-07-06T05:26:19;99190.69;;;25.31;61.53
62712;BME280;48772;55.586;37.730;2022-07-06T05:28:46;99182.72;;;25.30;61.38
62712;BME280;48772;55.586;37.730;2022-07-06T05:31:14;99186.28;;;25.49;61.58
62712;BME280;48772;55.586;37.730;2022-07-06T05:33:40;99162.41;;;25.44;60.55
62712;BME280;48772;55.586;37.730;2022-07-06T05:36:07;99182.31;;;25.63;59.46
62712;BME280;48772;55.586;37.730;2022-07-06T05:38:33;99186.63;;;25.70;59.77
62712;BME280;48772;55.586;37.730;2022-07-06T05:40:59;99182.22;;;25.69;58.94
62712;BME280;48772;55.586;37.730;2022-07-06T05:43:25;99184.19;;;25.80;58.82
62712;BME280;48772;55.586;37.730;2022-07-06T05:45:53;99181.78;;;26.02;58.10
62712;BME280;48772;55.586;37.730;2022-07-06T05:48:21;99171.13;;;26.12;57.61
62712;BME280;48772;55.586;37.730;2022-07-06T05:51:06;99179.59;;;26.33;57.91
62712;BME280;48772;55.586;37.730;2022-07-06T05:53:32;99185.22;;;26.38;56.66
62712;BME280;48772;55.586;37.730;2022-07-06T05:55:58;99180.59;;;26.50;56.80
62712;BME280;48772;55.586;37.730;2022-07-06T05:58:25;99183.72;;;26.65;56.52
62712;BME280;48772;55.586;37.730;2022-07-06T06:00:52;99182.31;;;26.74;56.92
62712;BME280;48772;55.586;37.730;2022-07-06T06:03:19;99192.16;;;26.75;55.43
62712;BME280;48772;55.586;37.730;2022-07-06T06:05:47;99182.88;;;26.76;56.25
62712;BME280;48772;55.586;37.730;2022-07-06T06:08:16;99177.03;;;26.84;56.27
62712;BME280;48772;55.586;37.730;2022-07-06T06:10:41;99168.13;;;26.89;56.29
62712;BME280;48772;55.586;37.730;2022-07-06T06:13:11;99167.53;;;26.98;56.08
62712;BME280;48772;55.586;37.730;2022-07-06T06:15:37;99177.63;;;27.21;55.60
62712;BME280;48772;55.586;37.730;2022-07-06T06:18:04;99175.13;;;27.31;54.49
62712;BME280;48772;55.586;37.730;2022-07-06T06:20:30;99169.91;;;27.29;54.24
62712;BME280;48772;55.586;37.730;2022-07-06T06:22:57;99169.28;;;27.39;54.22
62712;BME280;48772;55.586;37.730;2022-07-06T06:25:32;99165.13;;;27.36;54.86
62712;BME280;48772;55.586;37.730;2022-07-06T06:27:58;99154.66;;;27.33;54.86
62712;BME280;48772;55.586;37.730;2022-07-06T06:30:24;99160.81;;;27.17;55.19
62712;BME280;48772;55.586;37.730;2022-07-06T06:32:50;99160.34;;;27.20;56.13
62712;BME280;48772;55.586;37.730;2022-07-06T06:35:16;99159.19;;;27.28;56.69
62712;BME280;48772;55.586;37.730;2022-07-06T06:37:41;99174.88;;;27.32;55.42
62712;BME280;48772;55.586;37.730;2022-07-06T06:40:08;99174.59;;;27.45;54.32
62712;BME280;48772;55.586;37.730;2022-07-06T06:42:36;99129.94;;;27.45;55.17
62712;BME280;48772;55.586;37.730;2022-07-06T06:45:06;99169.72;;;27.75;54.93
62712;BME280;48772;55.586;37.730;2022-07-06T06:47:32;99155.94;;;27.70;55.29
62712;BME280;48772;55.586;37.730;2022-07-06T06:49:58;99161.41;;;27.70;55.35
62712;BME280;48772;55.586;37.730;2022-07-06T06:52:24;99141.19;;;27.60;52.88
62712;BME280;48772;55.586;37.730;2022-07-06T06:54:49;99177.34;;;27.85;53.38
62712;BME280;48772;55.586;37.730;2022-07-06T06:57:15;99173.81;;;28.01;52.99
62712;BME280;48772;55.586;37.730;2022-07-06T06:59:41;99170.19;;;28.12;52.62
62712;BME280;48772;55.586;37.730;2022-07-06T07:02:07;99168.19;;;28.24;51.19
62712;BME280;48772;55.586;37.730;2022-07-06T07:04:33;99157.56;;;28.27;50.94
62712;BME280;48772;55.586;37.730;2022-07-06T07:06:58;99144.25;;;28.36;50.61
62712;BME280;48772;55.586;37.730;2022-07-06T07:09:24;99155.91;;;28.26;51.25
62712;BME280;48772;55.586;37.730;2022-07-06T07:11:50;99154.59;;;28.46;51.42
62712;BME280;48772;55.586;37.730;2022-07-06T07:14:16;99158.78;;;28.65;50.39
62712;BME280;48772;55.586;37.730;2022-07-06T07:16:42;99164.75;;;28.62;50.02
62712;BME280;48772;55.586;37.730;2022-07-06T07:19:08;99146.13;;;28.47;49.88
62712;BME280;48772;55.586;37.730;2022-07-06T07:21:33;99176.88;;;28.82;48.62
62712;BME280;48772;55.586;37.730;2022-07-06T07:23:59;99184.09;;;28.72;48.96
62712;BME280;48772;55.586;37.730;2022-07-06T07:26:25;99165.16;;;29.03;46.02
62712;BME280;48772;55.586;37.730;2022-07-06T07:28:51;99178.44;;;29.11;46.70
62712;BME280;48772;55.586;37.730;2022-07-06T07:31:17;99167.34;;;29.06;46.38
62712;BME280;48772;55.586;37.730;2022-07-06T07:33:42;99174.34;;;29.14;46.22
62712;BME280;48772;55.586;37.730;2022-07-06T07:36:08;99155.69;;;29.16;45.02
62712;BME280;48772;55.586;37.730;2022-07-06T07:38:34;99170.19;;;29.33;46.24
62712;BME280;48772;55.586;37.730;2022-07-06T07:41:00;99161.69;;;29.56;44.94
62712;BME280;48772;55.586;37.730;2022-07-06T07:43:26;99161.22;;;29.59;45.73
62712;BME280;48772;55.586;37.730;2022-07-06T07:45:51;99169.88;;;29.51;45.28
62712;BME280;48772;55.586;37.730;2022-07-06T07:48:17;99148.72;;;29.30;46.00
62712;BME280;48772;55.586;37.730;2022-07-06T07:50:43;99154.94;;;29.63;45.20
62712;BME280;48772;55.586;37.730;2022-07-06T07:53:09;99168.09;;;29.83;45.34
62712;BME280;48772;55.586;37.730;2022-07-06T07:55:35;99162.16;;;29.96;45.43
62712;BME280;48772;55.586;37.730;2022-07-06T07:58:01;99156.13;;;29.94;45.60
62712;BME280;48772;55.586;37.730;2022-07-06T08:00:26;99166.75;;;30.12;45.29
62712;BME280;48772;55.586;37.730;2022-07-06T08:02:54;99165.59;;;29.81;44.04
62712;BME280;48772;55.586;37.730;2022-07-06T08:05:20;99164.38;;;29.51;45.94
62712;BME280;48772;55.586;37.730;2022-07-06T08:07:46;99153.84;;;29.64;44.92
62712;BME280;48772;55.586;37.730;2022-07-06T08:10:12;99164.88;;;29.91;44.85
62712;BME280;48772;55.586;37.730;2022-07-06T08:12:38;99150.44;;;30.05;44.36
62712;BME280;48772;55.586;37.730;2022-07-06T08:15:04;99123.13;;;29.94;43.63
62712;BME280;48772;55.586;37.730;2022-07-06T08:17:31;99166.97;;;30.32;44.18
62712;BME280;48772;55.586;37.730;2022-07-06T08:19:56;99162.81;;;30.29;43.69
62712;BME280;48772;55.586;37.730;2022-07-06T08:22:25;99149.22;;;30.18;43.46
62712;BME280;48772;55.586;37.730;2022-07-06T08:24:53;99144.28;;;30.20;43.21
62712;BME280;48772;55.586;37.730;2022-07-06T08:27:19;99152.28;;;30.53;42.70
62712;BME280;48772;55.586;37.730;2022-07-06T08:29:44;99151.75;;;30.92;42.08
62712;BME280;48772;55.586;37.730;2022-07-06T08:32:10;99144.84;;;30.85;42.57
62712;BME280;48772;55.586;37.730;2022-07-06T08:34:37;99144.88;;;30.95;42.58
62712;BME280;48772;55.586;37.730;2022-07-06T08:37:02;99151.47;;;31.31;41.12
62712;BME280;48772;55.586;37.730;2022-07-06T08:39:28;99153.59;;;31.24;40.85
62712;BME280;48772;55.586;37.730;2022-07-06T08:41:55;99143.72;;;31.28;40.46
62712;BME280;48772;55.586;37.730;2022-07-06T08:44:23;99153.38;;;31.30;40.61
62712;BME280;48772;55.586;37.730;2022-07-06T08:46:51;99146.91;;;31.66;39.71
62712;BME280;48772;55.586;37.730;2022-07-06T08:49:18;99134.78;;;31.62;40.00
62712;BME280;48772;55.586;37.730;2022-07-06T08:51:45;99138.09;;;31.69;40.45
62712;BME280;48772;55.586;37.730;2022-07-06T08:54:11;99143.03;;;31.67;40.44
62712;BME280;48772;55.586;37.730;2022-07-06T08:56:38;99115.41;;;31.47;41.52
62712;BME280;48772;55.586;37.730;2022-07-06T08:59:04;99149.09;;;31.64;40.70
62712;BME280;48772;55.586;37.730;2022-07-06T09:01:35;99131.44;;;31.60;40.11
62712;BME280;48772;55.586;37.730;2022-07-06T09:04:08;99144.53;;;31.95;40.07
62712;BME280;48772;55.586;37.730;2022-07-06T09:06:34;99135.78;;;31.46;40.35
62712;BME280;48772;55.586;37.730;2022-07-06T09:09:05;99129.25;;;31.72;39.56
62712;BME280;48772;55.586;37.730;2022-07-06T09:11:30;99134.59;;;31.99;39.15
62712;BME280;48772;55.586;37.730;2022-07-06T09:13:56;99138.22;;;32.14;40.11
62712;BME280;48772;55.586;37.730;2022-07-06T09:16:29;99126.91;;;32.11;40.22
62712;BME280;48772;55.586;37.730;2022-07-06T09:18:55;99133.03;;;32.33;39.66
62712;BME280;48772;55.586;37.730;2022-07-06T09:21:29;99132.72;;;32.34;39.56
62712;BME280;48772;55.586;37.730;2022-07-06T09:23:59;99116.69;;;32.06;38.47
62712;BME280;48772;55.586;37.730;2022-07-06T09:26:26;99111.06;;;31.71;40.20
62712;BME280;48772;55.586;37.730;2022-07-06T09:28:55;99127.56;;;31.51;39.28
62712;BME280;48772;55.586;37.730;2022-07-06T09:31:21;99116.69;;;32.21;38.48
62712;BME280;48772;55.586;37.730;2022-07-06T09:34:05;99113.91;;;31.91;37.80
62712;BME280;48772;55.586;37.730;2022-07-06T09:41:58;99119.78;;;30.50;42.30
62712;BME280;48772;55.586;37.730;2022-07-06T09:44:26;99126.25;;;30.34;43.03
62712;BME280;48772;55.586;37.730;2022-07-06T09:46:56;99125.59;;;30.53;43.48
62712;BME280;48772;55.586;37.730;2022-07-06T09:49:22;99117.94;;;31.02;41.95
62712;BME280;48772;55.586;37.730;2022-07-06T09:51:51;99127.06;;;31.74;40.36
62712;BME280;48772;55.586;37.730;2022-07-06T09:54:17;99104.00;;;32.10;39.24
62712;BME280;48772;55.586;37.730;2022-07-06T09:56:45;99117.78;;;32.05;39.56
62712;BME280;48772;55.586;37.730;2022-07-06T09:59:19;99102.25;;;31.69;39.65
62712;BME280;48772;55.586;37.730;2022-07-06T10:01:48;99106.00;;;31.33;40.29
62712;BME280;48772;55.586;37.730;2022-07-06T10:04:16;99108.75;;;31.33;40.33
62712;BME280;48772;55.586;37.730;2022-07-06T10:06:44;99097.06;;;31.83;40.22
62712;BME280;48772;55.586;37.730;2022-07-06T10:09:11;99106.19;;;31.98;38.66
62712;BME280;48772;55.586;37.730;2022-07-06T10:11:47;99095.69;;;32.30;38.05
62712;BME280;48772;55.586;37.730;2022-07-06T10:14:17;99080.47;;;31.73;38.71
62712;BME280;48772;55.586;37.730;2022-07-06T10:16:45;99095.81;;;31.39;39.90
62712;BME280;48772;55.586;37.730;2022-07-06T10:19:11;99102.25;;;31.02;39.91
62712;BME280;48772;55.586;37.730;2022-07-06T10:21:40;99105.16;;;30.81;40.06
62712;BME280;48772;55.586;37.730;2022-07-06T10:24:07;99091.53;;;30.64;40.94
62712;BME280;48772;55.586;37.730;2022-07-06T10:26:42;99070.00;;;30.20;42.25
62712;BME280;48772;55.586;37.730;2022-07-06T10:29:34;99074.03;;;30.12;42.02
62712;BME280;48772;55.586;37.730;2022-07-06T10:32:00;99083.28;;;30.01;42.79
62712;BME280;48772;55.586;37.730;2022-07-06T10:34:27;99101.03;;;29.89;44.11
62712;BME280;48772;55.586;37.730;2022-07-06T10:36:53;99135.25;;;29.50;50.05
62712;BME280;48772;55.586;37.730;2022-07-06T10:39:37;99106.06;;;28.46;50.85
62712;BME280;48772;55.586;37.730;2022-07-06T10:45:07;99095.38;;;29.47;47.90
62712;BME280;48772;55.586;37.730;2022-07-06T10:47:34;99079.69;;;30.27;43.00
62712;BME280;48772;55.586;37.730;2022-07-06T10:50:01;99091.88;;;30.73;41.59
62712;BME280;48772;55.586;37.730;2022-07-06T10:55:36;99081.81;;;31.60;44.08
62712;BME280;48772;55.586;37.730;2022-07-06T10:58:03;99078.56;;;31.78;43.87
62712;BME280;48772;55.586;37.730;2022-07-06T11:00:52;99064.25;;;31.96;41.18
62712;BME280;48772;55.586;37.730;2022-07-06T11:06:11;99065.91;;;32.57;42.14
62712;BME280;48772;55.586;37.730;2022-07-06T11:11:11;99059.44;;;33.02;40.50
62712;BME280;48772;55.586;37.730;2022-07-06T11:14:00;99049.47;;;33.06;39.50
62712;BME280;48772;55.586;37.730;2022-07-06T11:16:40;99055.78;;;33.11;38.43
62712;BME280;48772;55.586;37.730;2022-07-06T11:21:48;99034.72;;;32.27;40.23
62712;BME280;48772;55.586;37.730;2022-07-06T11:24:20;99055.97;;;32.11;40.84
62712;BME280;48772;55.586;37.730;2022-07-06T11:26:49;99058.19;;;32.09;40.08
62712;BME280;48772;55.586;37.730;2022-07-06T11:29:16;99025.03;;;32.19;39.94
62712;BME280;48772;55.586;37.730;2022-07-06T11:31:45;99038.28;;;32.57;38.35
62712;BME280;48772;55.586;37.730;2022-07-06T11:34:22;99034.34;;;32.73;38.19
62712;BME280;48772;55.586;37.730;2022-07-06T11:36:49;99039.44;;;32.31;38.88
62712;BME280;48772;55.586;37.730;2022-07-06T11:39:19;99038.88;;;31.99;39.59
62712;BME280;48772;55.586;37.730;2022-07-06T11:41:45;99039.31;;;31.41;39.26
62712;BME280;48772;55.586;37.730;2022-07-06T11:44:11;99077.44;;;30.97;39.61
62712;BME280;48772;55.586;37.730;2022-07-06T11:46:40;99077.13;;;30.94;39.81
62712;BME280;48772;55.586;37.730;2022-07-06T11:49:07;99069.34;;;31.38;38.50
62712;BME280;48772;55.586;37.730;2022-07-06T11:51:38;99028.28;;;31.41;39.24
62712;BME280;48772;55.586;37.730;2022-07-06T11:54:16;99056.25;;;32.20;38.14
62712;BME280;48772;55.586;37.730;2022-07-06T11:56:50;99028.38;;;32.36;38.88
62712;BME280;48772;55.586;37.730;2022-07-06T11:59:22;99037.44;;;32.57;35.61
62712;BME280;48772;55.586;37.730;2022-07-06T12:02:04;99016.72;;;32.64;35.43
62712;BME280;48772;55.586;37.730;2022-07-06T12:04:32;99011.72;;;32.86;35.25
62712;BME280;48772;55.586;37.730;2022-07-06T12:07:05;99033.22;;;32.94;35.86
62712;BME280;48772;55.586;37.730;2022-07-06T12:09:35;99050.34;;;31.36;39.58
62712;BME280;48772;55.586;37.730;2022-07-06T12:12:02;99073.91;;;30.29;41.36
62712;BME280;48772;55.586;37.730;2022-07-06T12:14:30;99028.63;;;29.52;42.85
62712;BME280;48772;55.586;37.730;2022-07-06T12:17:06;99028.81;;;29.19;42.57
62712;BME280;48772;55.586;37.730;2022-07-06T12:19:33;99020.19;;;29.10;42.96
62712;BME280;48772;55.586;37.730;2022-07-06T12:21:59;99036.03;;;29.25;42.47
62712;BME280;48772;55.586;37.730;2022-07-06T12:24:30;99051.34;;;29.42;42.25
62712;BME280;48772;55.586;37.730;2022-07-06T12:26:59;99054.16;;;29.47;41.46
62712;BME280;48772;55.586;37.730;2022-07-06T12:29:34;99014.47;;;29.60;40.87
62712;BME280;48772;55.586;37.730;2022-07-06T12:32:00;99040.91;;;29.66;41.45
62712;BME280;48772;55.586;37.730;2022-07-06T12:34:28;99040.41;;;29.74;40.95
62712;BME280;48772;55.586;37.730;2022-07-06T12:37:06;99049.00;;;30.14;40.33
62712;BME280;48772;55.586;37.730;2022-07-06T12:39:49;99044.53;;;30.03;39.05
62712;BME280;48772;55.586;37.730;2022-07-06T12:42:16;99049.72;;;30.31;38.80
62712;BME280;48772;55.586;37.730;2022-07-06T12:44:50;99068.22;;;30.35;39.81
62712;BME280;48772;55.586;37.730;2022-07-06T12:47:18;99060.81;;;30.41;37.49
62712;BME280;48772;55.586;37.730;2022-07-06T12:49:45;99026.13;;;30.40;37.70
62712;BME280;48772;55.586;37.730;2022-07-06T12:52:13;99051.81;;;30.50;37.43
62712;BME280;48772;55.586;37.730;2022-07-06T12:54:46;99047.69;;;30.53;37.41
62712;BME280;48772;55.586;37.730;2022-07-06T12:57:24;99062.56;;;30.57;38.21
62712;BME280;48772;55.586;37.730;2022-07-06T12:59:57;99020.63;;;30.40;37.93
62712;BME280;48772;55.586;37.730;2022-07-06T13:02:31;99049.56;;;30.47;38.79
62712;BME280;48772;55.586;37.730;2022-07-06T13:04:59;99049.50;;;30.37;38.50
62712;BME280;48772;55.586;37.730;2022-07-06T13:07:26;99061.84;;;30.30;38.65
62712;BME280;48772;55.586;37.730;2022-07-06T13:09:57;99038.81;;;30.41;38.29
62712;BME280;48772;55.586;37.730;2022-07-06T13:12:24;99021.53;;;30.50;38.50
62712;BME280;48772;55.586;37.730;2022-07-06T13:14:51;99009.88;;;30.38;39.32